Time;durP1;ratioP1;P1;durP2;ratioP2;P2;SDS_P1;SDS_P2;PMS_P1;PMS_P2;Temp;Humidity;BMP_temperature;BMP_pressure;BME280_temperature;BME280_humidity;BME280_pressure;Samples;Min_cycle;Max_cycle;Signal;HPM_P1;HPM_P2
2023/05/23 00:00:16;;;;;;;10.57;3.75;;;;;;;11.93;79.85;93813.56;5025103;28;20034;-70
2023/05/23 00:02:41;;;;;;;8.18;3.67;;;;;;;11.91;79.66;93825.69;5025061;28;20029;-70
2023/05/23 00:05:08;;;;;;;8.40;3.85;;;;;;;11.89;79.61;93817.22;5024409;28;20026;-70
2023/05/23 00:07:33;;;;;;;7.38;3.97;;;;;;;11.90;79.68;93810.75;5024519;28;20260;-70
2023/05/23 00:09:59;;;;;;;6.82;3.67;;;;;;;11.89;79.79;93803.88;5023635;28;20056;-70
2023/05/23 00:12:24;;;;;;;6.80;4.07;;;;;;;11.71;80.46;93798.56;5024735;28;20329;-70
2023/05/23 00:14:52;;;;;;;6.22;2.97;;;;;;;11.73;80.29;93793.69;5024699;28;20093;-69
2023/05/23 00:17:18;;;;;;;4.90;3.30;;;;;;;11.74;80.20;93797.91;5024499;28;20089;-70
2023/05/23 00:19:44;;;;;;;5.78;3.22;;;;;;;11.74;79.87;93795.25;5024669;28;20084;-70
2023/05/23 00:22:11;;;;;;;5.82;2.75;;;;;;;11.74;79.50;93797.13;5024814;28;20025;-70
2023/05/23 00:24:36;;;;;;;5.32;2.97;;;;;;;11.75;78.99;93798.72;5023615;28;20273;-70
2023/05/23 00:27:02;;;;;;;6.07;2.90;;;;;;;11.75;78.98;93798.72;5023996;28;20030;-70
2023/05/23 00:29:28;;;;;;;7.72;2.78;;;;;;;11.72;79.03;93802.78;5024191;28;20364;-70
2023/05/23 00:31:53;;;;;;;5.25;3.00;;;;;;;11.70;78.96;93796.97;5024349;28;20038;-70
2023/05/23 00:34:19;;;;;;;6.30;2.88;;;;;;;11.66;78.99;93793.38;5024055;28;20328;-69
2023/05/23 00:36:49;;;;;;;5.53;2.60;;;;;;;11.63;79.11;93791.38;5023920;28;20029;-69
2023/05/23 00:39:18;;;;;;;4.65;2.75;;;;;;;11.64;79.27;93793.72;5024319;28;20036;-69
2023/05/23 00:41:51;;;;;;;3.90;2.58;;;;;;;11.65;79.21;93803.28;5024167;28;20336;-69
2023/05/23 00:44:18;;;;;;;4.53;2.65;;;;;;;11.64;79.16;93800.94;5024035;28;20312;-69
2023/05/23 00:46:48;;;;;;;4.15;2.70;;;;;;;11.62;79.01;93792.47;5023844;28;20028;-70
2023/05/23 00:49:13;;;;;;;5.60;2.47;;;;;;;11.62;79.02;93785.25;5024143;28;20017;-70
2023/05/23 00:51:41;;;;;;;6.45;2.80;;;;;;;11.58;79.07;93786.19;5024218;28;20032;-70
2023/05/23 00:54:08;;;;;;;5.65;2.40;;;;;;;11.59;79.10;93785.13;5023663;28;20022;-70
2023/05/23 00:56:35;;;;;;;5.15;3.13;;;;;;;11.57;79.45;93795.31;5023782;28;20324;-70
2023/05/23 00:59:00;;;;;;;5.18;3.05;;;;;;;11.58;79.25;93794.22;5023724;28;20328;-70
2023/05/23 01:01:26;;;;;;;3.97;2.42;;;;;;;11.57;79.45;93790.75;5023928;28;20018;-70
2023/05/23 01:03:52;;;;;;;5.82;2.95;;;;;;;11.51;79.47;93797.38;5023723;28;20045;-70
2023/05/23 01:06:19;;;;;;;4.72;2.60;;;;;;;11.51;79.36;93799.28;5023576;28;20022;-70
2023/05/23 01:08:44;;;;;;;4.10;2.60;;;;;;;11.51;79.61;93797.38;5023659;28;20014;-70
2023/05/23 01:11:22;;;;;;;5.00;2.78;;;;;;;11.52;79.65;93796.28;5023798;28;20029;-70
2023/05/23 01:14:06;;;;;;;4.28;2.95;;;;;;;11.49;79.70;93801.47;5023588;28;20017;-71
2023/05/23 01:17:04;;;;;;;5.70;2.38;;;;;;;11.50;79.65;93809.19;5023482;28;20338;-70
2023/05/23 01:19:51;;;;;;;4.95;2.63;;;;;;;11.47;79.76;93807.13;5023281;28;20044;-70
2023/05/23 01:22:25;;;;;;;6.00;3.13;;;;;;;11.44;79.65;93802.44;5023613;28;20060;-70
2023/05/23 01:25:06;;;;;;;5.50;2.65;;;;;;;11.49;79.43;93804.16;5023528;28;20033;-70
2023/05/23 01:27:47;;;;;;;7.00;3.38;;;;;;;11.47;79.87;93798.34;5023472;28;20056;-70
2023/05/23 01:30:18;;;;;;;5.75;3.35;;;;;;;11.43;80.44;93788.31;5023469;28;20026;-70
2023/05/23 01:32:46;;;;;;;5.65;3.42;;;;;;;11.47;81.08;93793.00;5023229;28;20018;-70
2023/05/23 01:35:15;;;;;;;7.38;3.78;;;;;;;11.45;81.48;93794.09;5022914;28;20056;-70
2023/05/23 01:37:40;;;;;;;11.73;3.60;;;;;;;11.44;81.52;93797.88;5023044;28;20032;-70
2023/05/23 01:40:06;;;;;;;6.40;3.08;;;;;;;11.47;81.33;93795.69;5023104;28;20084;-71
2023/05/23 01:42:32;;;;;;;4.32;2.90;;;;;;;11.48;81.24;93790.03;5022985;28;20037;-70
2023/05/23 01:44:58;;;;;;;7.55;3.70;;;;;;;11.49;80.98;93788.91;5023113;28;20022;-70
2023/05/23 01:47:24;;;;;;;5.55;3.22;;;;;;;11.45;81.02;93791.44;5023095;28;20021;-70
2023/05/23 01:49:51;;;;;;;5.95;3.58;;;;;;;11.44;81.16;93800.56;5022967;28;20037;-70
2023/05/23 01:52:16;;;;;;;8.30;3.25;;;;;;;11.45;81.10;93794.09;5022857;28;20026;-70
2023/05/23 01:54:43;;;;;;;4.95;2.83;;;;;;;11.44;81.01;93784.53;5022929;28;20255;-70
2023/05/23 01:57:09;;;;;;;8.07;3.55;;;;;;;11.45;81.33;93788.75;5023102;28;20224;-70
2023/05/23 01:59:35;;;;;;;6.30;3.60;;;;;;;11.38;81.72;93785.03;5022951;28;20269;-70
2023/05/23 02:02:00;;;;;;;8.10;3.75;;;;;;;11.36;81.84;93777.34;5022799;28;20077;-71
2023/05/23 02:04:27;;;;;;;6.15;4.28;;;;;;;11.40;81.98;93783.63;5022447;28;20026;-70
2023/05/23 02:06:52;;;;;;;8.07;4.93;;;;;;;11.42;81.88;93786.75;5022389;28;20068;-70
2023/05/23 02:09:18;;;;;;;7.13;4.35;;;;;;;11.40;81.97;93783.63;5022670;28;20019;-70
2023/05/23 02:11:43;;;;;;;8.43;4.25;;;;;;;11.35;81.89;93778.44;5022746;28;20063;-70
2023/05/23 02:14:10;;;;;;;11.45;3.92;;;;;;;11.33;82.09;93777.19;5022824;28;20060;-71
2023/05/23 02:16:36;;;;;;;5.95;3.17;;;;;;;11.36;81.46;93782.69;5022476;28;20024;-70
2023/05/23 02:19:02;;;;;;;6.90;3.40;;;;;;;11.33;81.19;93785.97;5022654;28;20026;-70
2023/05/23 02:21:27;;;;;;;5.10;3.00;;;;;;;11.34;81.31;93786.78;5022719;28;20088;-71
2023/05/23 02:23:53;;;;;;;5.18;3.42;;;;;;;11.33;81.23;93788.66;5021492;28;20026;-70
2023/05/23 02:26:18;;;;;;;5.53;3.60;;;;;;;11.31;80.97;93785.53;5022460;28;20014;-70
2023/05/23 02:28:44;;;;;;;7.93;3.60;;;;;;;11.26;80.89;93785.69;5022580;28;20068;-70
2023/05/23 02:31:10;;;;;;;6.05;3.80;;;;;;;11.25;81.01;93786.78;5022877;28;20018;-70
2023/05/23 02:33:37;;;;;;;6.80;3.40;;;;;;;11.22;80.98;93792.78;5022632;28;20025;-70
2023/05/23 02:36:03;;;;;;;6.25;3.90;;;;;;;11.17;81.02;93785.72;5021812;28;20272;-70
2023/05/23 02:38:29;;;;;;;5.60;3.65;;;;;;;11.15;81.10;93777.25;5022518;28;20025;-70
2023/05/23 02:40:56;;;;;;;7.03;4.05;;;;;;;11.15;81.07;93771.13;5022413;28;20222;-70
2023/05/23 02:43:22;;;;;;;5.85;3.53;;;;;;;11.14;81.11;93774.91;5022398;28;20029;-70
2023/05/23 02:45:47;;;;;;;8.60;4.00;;;;;;;11.12;80.99;93771.78;5022376;28;20052;-70
2023/05/23 02:48:13;;;;;;;8.15;4.65;;;;;;;11.09;81.28;93765.16;5025169;28;20032;-70
2023/05/23 02:50:38;;;;;;;10.95;4.95;;;;;;;11.10;81.22;93763.31;5026757;28;20018;-70
2023/05/23 02:53:04;;;;;;;7.22;4.40;;;;;;;11.10;81.19;93772.09;5026396;28;20259;-70
2023/05/23 02:55:30;;;;;;;16.80;4.65;;;;;;;11.08;81.05;93766.28;5026147;28;20022;-70
2023/05/23 02:57:57;;;;;;;11.05;5.20;;;;;;;11.01;81.06;93769.44;5026001;28;20048;-70
2023/05/23 03:00:23;;;;;;;11.98;4.95;;;;;;;10.99;81.18;93765.50;5026378;28;20105;-70
2023/05/23 03:02:49;;;;;;;15.10;4.43;;;;;;;10.95;81.24;93770.72;5026107;28;20042;-70
2023/05/23 03:05:14;;;;;;;12.93;4.75;;;;;;;10.98;81.00;93774.63;5026130;28;20025;-70
2023/05/23 03:07:40;;;;;;;8.15;4.53;;;;;;;10.96;81.12;93774.94;5026154;28;20220;-70
2023/05/23 03:10:06;;;;;;;8.93;4.65;;;;;;;10.94;80.88;93779.03;5025917;28;20029;-70
2023/05/23 03:12:32;;;;;;;7.38;4.25;;;;;;;10.92;81.17;93783.91;5025938;28;20324;-71
2023/05/23 03:14:57;;;;;;;7.95;4.57;;;;;;;10.89;81.89;93785.31;5026038;28;20193;-70
2023/05/23 03:17:24;;;;;;;7.70;4.68;;;;;;;10.92;81.68;93779.34;5025704;28;20232;-71
2023/05/23 03:19:50;;;;;;;9.55;4.90;;;;;;;10.93;82.53;93780.91;5025562;28;20054;-70
2023/05/23 03:22:16;;;;;;;8.18;4.32;;;;;;;10.93;82.95;93777.44;5025603;28;20264;-70
2023/05/23 03:24:41;;;;;;;7.78;4.55;;;;;;;10.92;82.92;93778.56;5025630;28;20439;-71
2023/05/23 03:27:07;;;;;;;8.02;4.38;;;;;;;10.86;83.13;93774.50;5025468;28;20382;-70
2023/05/23 03:29:33;;;;;;;11.77;4.60;;;;;;;10.86;83.64;93791.28;5025469;28;20129;-70
2023/05/23 03:31:58;;;;;;;10.27;4.95;;;;;;;10.82;83.86;93785.00;5025584;28;20359;-70
2023/05/23 03:34:25;;;;;;;8.13;5.50;;;;;;;10.84;83.98;93783.56;5025415;28;20328;-71
2023/05/23 03:36:51;;;;;;;8.38;5.38;;;;;;;10.88;83.88;93794.41;5025460;28;20022;-71
2023/05/23 03:39:17;;;;;;;12.13;5.82;;;;;;;10.87;84.04;93792.84;5024906;28;20034;-71
2023/05/23 03:41:42;;;;;;;16.30;6.82;;;;;;;10.87;83.54;93795.50;5025658;28;20093;-70
2023/05/23 03:44:07;;;;;;;11.60;5.38;;;;;;;10.86;83.26;93799.28;5025347;28;20025;-70
2023/05/23 03:46:33;;;;;;;11.20;5.45;;;;;;;10.84;83.45;93806.81;5025392;28;20033;-70
2023/05/23 03:48:58;;;;;;;12.43;5.35;;;;;;;10.80;83.40;93803.97;5025101;28;20316;-70
2023/05/23 03:51:24;;;;;;;13.00;6.55;;;;;;;10.79;83.81;93806.97;5025188;28;20044;-70
2023/05/23 03:53:50;;;;;;;11.57;6.80;;;;;;;10.81;84.34;93802.88;5025145;28;20123;-71
2023/05/23 03:56:15;;;;;;;14.52;6.63;;;;;;;10.81;84.59;93810.13;5025046;28;20037;-70
2023/05/23 03:58:41;;;;;;;12.88;5.75;;;;;;;10.84;84.84;93804.91;5024092;28;20044;-70
2023/05/23 04:01:06;;;;;;;13.10;6.10;;;;;;;10.90;84.66;93808.19;5024975;28;20033;-70
2023/05/23 04:03:32;;;;;;;13.70;8.32;;;;;;;10.94;84.99;93803.03;5024911;28;20089;-70
2023/05/23 04:05:59;;;;;;;15.63;9.43;;;;;;;10.93;85.06;93806.78;5023870;28;20358;-70
2023/05/23 04:08:25;;;;;;;18.83;7.65;;;;;;;10.96;85.57;93809.59;5024823;28;20350;-70
2023/05/23 04:10:51;;;;;;;21.70;9.98;;;;;;;10.96;85.70;93814.94;5024821;28;20037;-71
2023/05/23 04:13:17;;;;;;;24.80;10.02;;;;;;;10.99;86.00;93806.31;5024737;28;20021;-70
2023/05/23 04:15:43;;;;;;;17.70;8.60;;;;;;;11.03;86.28;93807.25;5024928;28;20041;-70
2023/05/23 04:18:09;;;;;;;15.77;9.90;;;;;;;11.05;86.38;93809.59;5024657;28;20315;-70
2023/05/23 04:20:34;;;;;;;17.90;9.57;;;;;;;11.08;87.03;93800.19;5024554;28;20036;-71
2023/05/23 04:23:00;;;;;;;103.20;13.07;;;;;;;11.08;87.92;93806.28;5024658;28;20072;-70
2023/05/23 04:25:26;;;;;;;49.58;12.82;;;;;;;11.11;88.22;93807.53;5024354;28;20251;-71
2023/05/23 04:27:53;;;;;;;140.73;15.65;;;;;;;11.11;88.94;93802.22;5024336;28;20219;-71
2023/05/23 04:30:19;;;;;;;53.38;14.50;;;;;;;11.13;89.56;93800.00;5024645;28;20033;-70
2023/05/23 04:32:44;;;;;;;116.13;15.73;;;;;;;11.21;90.37;93801.88;5024568;28;20247;-71
2023/05/23 04:35:10;;;;;;;113.68;16.15;;;;;;;11.21;90.28;93801.88;5024256;28;20116;-70
2023/05/23 04:37:38;;;;;;;67.82;15.82;;;;;;;11.26;90.50;93801.72;5023805;28;20076;-71
2023/05/23 04:40:04;;;;;;;45.50;15.93;;;;;;;11.35;90.77;93807.78;5024101;28;20125;-70
2023/05/23 04:42:30;;;;;;;59.55;16.42;;;;;;;11.45;90.24;93817.34;5024206;28;20033;-70
2023/05/23 04:44:57;;;;;;;158.25;16.67;;;;;;;11.51;89.58;93809.94;5024009;28;20053;-71
2023/05/23 04:47:23;;;;;;;106.90;15.13;;;;;;;11.48;89.40;93808.72;5024010;28;20100;-70
2023/05/23 04:49:50;;;;;;;102.13;15.75;;;;;;;11.56;89.72;93812.44;5024012;28;20024;-71
2023/05/23 04:52:17;;;;;;;116.95;15.73;;;;;;;11.59;89.32;93809.91;5023973;28;20037;-71
2023/05/23 04:54:45;;;;;;;54.95;13.65;;;;;;;11.64;88.49;93820.44;5024199;28;20331;-71
2023/05/23 04:57:11;;;;;;;40.95;13.75;;;;;;;11.64;88.84;93824.97;5023774;28;20056;-71
2023/05/23 04:59:37;;;;;;;62.90;13.20;;;;;;;11.70;89.08;93834.38;5023754;28;20030;-71
2023/05/23 05:02:04;;;;;;;125.68;15.15;;;;;;;11.69;88.62;93826.69;5023866;28;20021;-71
2023/05/23 05:04:30;;;;;;;208.02;19.50;;;;;;;11.60;88.66;93822.19;5023856;28;20053;-71
2023/05/23 05:06:56;;;;;;;85.75;15.98;;;;;;;11.56;89.13;93831.13;5023577;28;20068;-71
2023/05/23 05:09:22;;;;;;;42.83;15.63;;;;;;;11.61;90.17;93821.06;5023672;28;20120;-70
2023/05/23 05:11:47;;;;;;;49.03;15.60;;;;;;;11.72;90.24;93829.47;5023144;28;20029;-71
2023/05/23 05:14:15;;;;;;;25.50;14.63;;;;;;;11.84;89.90;93834.97;5023903;28;20068;-71
2023/05/23 05:16:41;;;;;;;184.77;19.25;;;;;;;11.93;89.38;93834.94;5023772;28;20231;-71
2023/05/23 05:19:07;;;;;;;51.05;15.57;;;;;;;12.04;89.40;93830.00;5023458;28;20022;-71
2023/05/23 05:21:32;;;;;;;58.15;16.92;;;;;;;12.19;89.24;93834.81;5023311;28;20032;-71
2023/05/23 05:23:58;;;;;;;45.75;15.75;;;;;;;12.30;88.77;93837.09;5023160;28;20053;-71
2023/05/23 05:26:25;;;;;;;61.50;15.23;;;;;;;12.32;88.00;93835.66;5023320;28;20089;-71
2023/05/23 05:28:51;;;;;;;55.55;16.80;;;;;;;12.35;87.84;93834.22;5023269;28;20033;-71
2023/05/23 05:31:17;;;;;;;31.90;15.90;;;;;;;12.40;88.15;93826.03;5023526;28;20085;-70
2023/05/23 05:33:44;;;;;;;33.63;19.58;;;;;;;12.48;87.63;93835.13;5023214;28;20076;-71
2023/05/23 05:36:10;;;;;;;27.88;16.85;;;;;;;12.56;87.70;93829.69;5023263;28;20040;-71
2023/05/23 05:38:35;;;;;;;24.05;15.55;;;;;;;12.69;87.01;93840.47;5022874;28;20026;-71
2023/05/23 05:41:01;;;;;;;24.30;14.23;;;;;;;12.77;86.52;93837.72;5023293;28;20065;-71
2023/05/23 05:43:26;;;;;;;29.50;14.98;;;;;;;12.91;85.75;93842.78;5023093;28;20022;-71
2023/05/23 05:45:52;;;;;;;24.60;14.65;;;;;;;13.08;85.41;93849.09;5022678;28;20051;-71
2023/05/23 05:48:18;;;;;;;31.80;15.57;;;;;;;13.24;84.23;93839.34;5023080;28;20010;-71
2023/05/23 05:50:44;;;;;;;33.05;16.50;;;;;;;13.41;83.36;93847.25;5023061;28;20017;-71
2023/05/23 05:53:11;;;;;;;39.60;16.63;;;;;;;13.61;82.45;93848.28;5023059;28;20017;-71
2023/05/23 05:55:37;;;;;;;26.67;16.15;;;;;;;13.76;81.83;93838.84;5023037;28;20025;-71
2023/05/23 05:58:02;;;;;;;30.98;16.42;;;;;;;13.91;80.82;93844.66;5004892;28;20033;-71
2023/05/23 06:00:28;;;;;;;23.77;15.13;;;;;;;14.07;79.80;93842.88;5022884;28;20061;-71
2023/05/23 06:02:56;;;;;;;26.98;16.05;;;;;;;14.16;78.26;93838.16;5022918;28;20026;-71
2023/05/23 06:05:22;;;;;;;32.15;14.48;;;;;;;14.09;78.22;93837.97;5022762;28;20037;-71
2023/05/23 06:07:48;;;;;;;29.67;14.98;;;;;;;14.16;78.53;93830.13;5022324;28;20324;-71
2023/05/23 06:10:14;;;;;;;24.08;13.35;;;;;;;14.21;78.00;93835.28;5022091;28;20022;-71
2023/05/23 06:12:39;;;;;;;26.50;14.50;;;;;;;14.26;77.43;93828.91;5022836;28;20142;-71
2023/05/23 06:15:06;;;;;;;33.28;15.18;;;;;;;14.23;77.52;93841.09;5022869;28;20021;-71
2023/05/23 06:17:31;;;;;;;34.13;18.05;;;;;;;14.22;78.22;93844.09;5022491;28;20018;-71
2023/05/23 06:19:57;;;;;;;29.30;17.35;;;;;;;14.27;78.51;93843.06;5022594;28;20076;-71
2023/05/23 06:22:23;;;;;;;29.83;16.98;;;;;;;14.30;78.51;93842.41;5007879;28;20091;-71
2023/05/23 06:24:48;;;;;;;31.08;17.23;;;;;;;14.27;78.18;93840.41;5029210;28;20045;-71
2023/05/23 06:27:13;;;;;;;30.98;17.77;;;;;;;14.40;79.89;93850.00;5029348;28;20092;-72
2023/05/23 06:29:39;;;;;;;25.98;17.10;;;;;;;14.48;79.04;93845.66;5029389;28;20033;-72
2023/05/23 06:32:05;;;;;;;26.23;15.82;;;;;;;14.67;79.14;93842.38;5029297;28;20038;-71
2023/05/23 06:34:30;;;;;;;23.55;15.55;;;;;;;14.78;76.51;93855.00;5028572;28;20060;-72
2023/05/23 06:36:56;;;;;;;29.13;17.30;;;;;;;14.89;76.61;93860.66;5029225;28;20032;-69
2023/05/23 06:39:22;;;;;;;33.72;17.50;;;;;;;14.94;75.63;93862.31;5011393;28;20315;-71
2023/05/23 06:41:47;;;;;;;29.13;18.13;;;;;;;14.91;75.63;93863.78;5028783;28;20022;-84
2023/05/23 06:44:13;;;;;;;30.05;17.35;;;;;;;14.84;75.56;93860.91;5012794;28;20133;-85
2023/05/23 06:46:39;;;;;;;30.85;18.05;;;;;;;14.77;75.98;93852.66;5031370;28;20052;-88
2023/05/23 06:49:05;;;;;;;28.90;16.55;;;;;;;14.76;76.96;93846.50;5030419;28;20281;-88
2023/05/23 06:51:30;;;;;;;26.33;17.00;;;;;;;14.79;76.54;93848.50;5013939;28;20033;-89
2023/05/23 06:53:56;;;;;;;35.50;17.98;;;;;;;14.85;77.71;93844.47;5031459;28;20359;-87
2023/05/23 06:56:25;;;;;;;30.75;15.98;;;;;;;14.94;77.64;93838.16;5032057;28;20030;-91
2023/05/23 06:58:50;;;;;;;33.10;16.50;;;;;;;14.98;78.29;93834.50;5031808;28;20030;-90
2023/05/23 07:01:16;;;;;;;29.02;15.70;;;;;;;15.08;77.73;93829.75;5031609;28;20092;-89
2023/05/23 07:03:44;;;;;;;44.30;17.45;;;;;;;15.22;77.42;93822.06;5013386;28;20076;-89
2023/05/23 07:06:09;;;;;;;40.47;17.17;;;;;;;15.37;76.54;93831.31;5032081;28;20037;-89
2023/05/23 07:08:35;;;;;;;39.03;15.20;;;;;;;15.50;75.54;93819.34;5032005;28;20088;-88
2023/05/23 07:11:00;;;;;;;28.85;14.88;;;;;;;15.63;75.62;93820.84;5031657;28;20026;-89
2023/05/23 07:13:26;;;;;;;27.73;14.77;;;;;;;15.79;74.86;93820.91;5014893;28;20021;-88
2023/05/23 07:15:51;;;;;;;25.98;14.65;;;;;;;15.82;74.27;93820.19;5033268;28;20085;-89
2023/05/23 07:18:17;;;;;;;26.42;14.13;;;;;;;15.90;73.34;93821.16;5033571;28;20499;-88
2023/05/23 07:20:42;;;;;;;21.23;10.88;;;;;;;15.81;72.82;93813.28;5034660;28;20018;-89
2023/05/23 07:23:08;;;;;;;31.55;11.13;;;;;;;15.97;72.63;93821.31;5016631;28;20022;-90
2023/05/23 07:25:33;;;;;;;24.30;11.57;;;;;;;16.13;72.64;93807.88;5018205;28;20312;-90
2023/05/23 07:27:59;;;;;;;21.17;11.35;;;;;;;16.28;71.71;93803.59;5032954;28;20048;-91
2023/05/23 07:30:24;;;;;;;24.73;12.27;;;;;;;16.32;71.63;93798.28;5016156;28;20040;-91
2023/05/23 07:32:51;;;;;;;19.48;13.55;;;;;;;16.42;71.50;93808.50;5034843;28;20041;-90
2023/05/23 07:35:17;;;;;;;33.00;14.50;;;;;;;16.53;70.98;93792.63;5030651;28;20042;-86
2023/05/23 07:37:42;;;;;;;25.58;14.05;;;;;;;16.61;71.20;93803.16;5013319;28;20026;-88
2023/05/23 07:40:09;;;;;;;27.38;14.13;;;;;;;16.73;70.07;93804.16;5031299;28;20028;-88
2023/05/23 07:42:35;;;;;;;34.75;13.88;;;;;;;16.85;70.00;93798.66;5030768;28;20508;-87
2023/05/23 07:45:01;;;;;;;38.55;16.02;;;;;;;16.98;69.33;93794.72;5027396;28;20093;-86
2023/05/23 07:47:27;;;;;;;26.35;12.38;;;;;;;17.13;69.21;93798.47;5028897;28;20064;-88
2023/05/23 07:49:56;;;;;;;25.42;9.85;;;;;;;17.27;67.27;93797.19;5032762;28;20029;-88
2023/05/23 07:52:21;;;;;;;25.35;9.48;;;;;;;17.36;67.18;93793.13;5030343;28;20030;-89
2023/05/23 07:54:49;;;;;;;21.38;9.25;;;;;;;17.45;66.23;93790.97;5030302;28;20116;-86
2023/05/23 07:57:15;;;;;;;17.83;9.80;;;;;;;17.53;65.94;93791.13;5012470;28;20230;-89
2023/05/23 07:59:41;;;;;;;18.85;9.00;;;;;;;17.65;66.21;93790.94;5027294;28;20128;-84
2023/05/23 08:02:06;;;;;;;21.17;9.65;;;;;;;17.81;65.95;93794.28;5027214;28;20022;-86
2023/05/23 08:04:32;;;;;;;20.30;8.57;;;;;;;17.90;65.08;93791.38;5011823;28;20324;-85
2023/05/23 08:06:59;;;;;;;18.08;9.90;;;;;;;17.91;65.20;93798.34;5026952;28;20087;-89
2023/05/23 08:09:25;;;;;;;17.60;8.73;;;;;;;18.01;64.55;93780.75;5008922;28;20028;-86
2023/05/23 08:11:50;;;;;;;24.08;8.65;;;;;;;18.11;63.79;93779.34;5028608;28;20045;-88
2023/05/23 08:14:16;;;;;;;17.23;9.23;;;;;;;18.23;63.31;93779.94;5010995;28;20021;-87
2023/05/23 08:16:41;;;;;;;19.38;8.82;;;;;;;18.30;61.16;93781.16;5027297;28;20071;-87
2023/05/23 08:19:06;;;;;;;16.65;8.63;;;;;;;18.43;61.37;93777.13;5027378;28;20026;-87
2023/05/23 08:21:32;;;;;;;25.02;10.27;;;;;;;18.38;61.88;93782.84;5027915;28;20072;-88
2023/05/23 08:23:58;;;;;;;18.65;10.27;;;;;;;18.48;61.62;93784.13;5011492;28;20037;-89
2023/05/23 08:26:23;;;;;;;17.92;9.32;;;;;;;18.61;61.58;93775.44;5027403;28;20070;-86
2023/05/23 08:28:50;;;;;;;23.05;10.88;;;;;;;18.69;62.35;93781.72;5027139;28;20045;-88
2023/05/23 08:31:16;;;;;;;16.63;9.02;;;;;;;18.68;61.28;93780.16;5029945;28;20097;-89
2023/05/23 08:33:42;;;;;;;21.33;9.00;;;;;;;18.71;61.74;93784.84;5027742;28;20080;-87
2023/05/23 08:36:07;;;;;;;34.25;9.30;;;;;;;18.79;60.80;93788.44;5025950;28;20032;-89
2023/05/23 08:38:32;;;;;;;16.67;7.40;;;;;;;18.79;59.73;93786.50;5026048;28;20041;-87
2023/05/23 08:41:00;;;;;;;17.02;6.85;;;;;;;18.88;59.29;93778.13;5025429;28;20057;-91
2023/05/23 08:43:26;;;;;;;14.43;7.32;;;;;;;18.91;57.54;93777.41;5007670;28;20022;-85
2023/05/23 08:45:52;;;;;;;22.33;7.93;;;;;;;19.06;58.79;93782.97;5024439;28;20028;-87
2023/05/23 08:48:19;;;;;;;24.73;8.25;;;;;;;19.24;59.44;93783.94;5024695;28;20220;-87
2023/05/23 08:50:46;;;;;;;14.18;6.55;;;;;;;19.36;58.98;93775.59;5024302;28;20036;-87
2023/05/23 08:53:19;;;;;;;19.45;7.55;;;;;;;19.47;57.02;93777.63;5007146;28;20097;-86
2023/05/23 08:55:50;;;;;;;10.25;4.70;;;;;;;19.41;54.36;93777.94;5024580;28;20076;-86
2023/05/23 08:58:19;;;;;;;18.02;4.70;;;;;;;19.59;54.56;93777.34;5006757;28;20026;-87
2023/05/23 09:00:45;;;;;;;10.23;4.68;;;;;;;19.74;53.82;93773.66;5024353;28;20029;-86
2023/05/23 09:03:11;;;;;;;9.93;4.40;;;;;;;19.84;52.18;93780.28;5024978;28;20045;-87
2023/05/23 09:05:41;;;;;;;13.38;4.63;;;;;;;19.83;52.71;93778.75;5024610;28;20021;-85
2023/05/23 09:08:06;;;;;;;11.20;5.28;;;;;;;19.96;53.75;93765.72;5024183;28;20029;-88
2023/05/23 09:10:32;;;;;;;11.82;4.50;;;;;;;20.11;51.74;93769.28;5024119;28;20026;-86
2023/05/23 09:12:57;;;;;;;12.25;3.92;;;;;;;20.26;52.48;93775.59;5024913;28;20026;-88
2023/05/23 09:15:23;;;;;;;12.07;3.58;;;;;;;20.41;49.94;93766.41;5024258;28;20022;-83
2023/05/23 09:17:49;;;;;;;10.45;3.33;;;;;;;20.57;48.84;93775.00;5024030;28;20056;-84
2023/05/23 09:20:16;;;;;;;10.38;3.80;;;;;;;20.67;47.80;93775.50;5024195;28;20068;-84
2023/05/23 09:22:46;;;;;;;8.02;3.30;;;;;;;20.78;46.24;93777.09;5025613;28;20037;-84
2023/05/23 09:25:13;;;;;;;9.23;2.85;;;;;;;20.90;45.24;93773.25;5024045;28;20053;-84
2023/05/23 09:27:38;;;;;;;9.05;3.78;;;;;;;20.97;44.52;93767.88;5024984;28;20251;-85
2023/05/23 09:30:08;;;;;;;7.13;3.10;;;;;;;21.09;43.26;93768.72;5024355;28;20045;-84
2023/05/23 09:32:34;;;;;;;6.65;3.30;;;;;;;21.19;42.11;93767.97;5024414;28;20140;-83
2023/05/23 09:35:04;;;;;;;11.02;3.22;;;;;;;21.26;43.59;93762.56;5023842;28;20041;-83
2023/05/23 09:37:39;;;;;;;6.43;2.83;;;;;;;21.34;43.13;93766.84;5006812;28;20101;-84
2023/05/23 09:40:09;;;;;;;11.00;3.22;;;;;;;21.41;42.78;93766.88;5005925;28;20042;-83
2023/05/23 09:42:40;;;;;;;8.85;3.13;;;;;;;21.50;41.36;93765.75;5024533;28;20037;-84
2023/05/23 09:45:09;;;;;;;9.85;2.85;;;;;;;21.57;41.87;93771.19;5024223;28;20084;-84
2023/05/23 09:47:34;;;;;;;8.60;3.42;;;;;;;21.67;41.17;93761.50;5024290;28;20025;-83
2023/05/23 09:50:00;;;;;;;5.25;3.05;;;;;;;21.75;40.46;93763.84;5024630;28;20285;-84
2023/05/23 09:52:25;;;;;;;5.00;3.03;;;;;;;21.78;41.03;93752.22;5023953;28;20017;-85
2023/05/23 09:54:54;;;;;;;11.48;3.00;;;;;;;21.87;41.17;93751.84;5025024;28;20021;-86
2023/05/23 09:57:22;;;;;;;7.50;2.97;;;;;;;21.92;39.30;93737.91;5023462;28;20014;-84
2023/05/23 09:59:57;;;;;;;9.00;3.28;;;;;;;22.03;40.83;93751.44;5024500;28;20064;-84
2023/05/23 10:02:53;;;;;;;12.95;4.88;;;;;;;22.08;38.82;93748.34;5024434;28;20212;-88
2023/05/23 10:05:45;;;;;;;12.30;3.40;;;;;;;22.14;38.67;93749.50;5023796;28;20029;-84
2023/05/23 10:08:16;;;;;;;8.55;2.72;;;;;;;22.24;39.46;93745.25;5006022;28;20025;-83
2023/05/23 10:11:12;;;;;;;5.82;2.75;;;;;;;22.25;38.95;93746.81;5023640;28;20219;-83
2023/05/23 10:13:41;;;;;;;8.55;2.92;;;;;;;22.24;38.32;93745.25;5023230;28;20040;-83
2023/05/23 10:16:27;;;;;;;8.70;3.15;;;;;;;22.21;38.97;93738.63;5023155;28;20034;-84
2023/05/23 10:18:59;;;;;;;8.38;2.85;;;;;;;22.28;38.26;93742.53;4982860;28;20060;-83
2023/05/23 10:21:58;;;;;;;8.30;2.63;;;;;;;22.41;37.97;93746.41;5023076;28;20021;-83
2023/05/23 10:24:25;;;;;;;6.32;2.38;;;;;;;22.50;35.02;93735.91;5009205;28;20042;-83
2023/05/23 10:26:52;;;;;;;6.95;2.90;;;;;;;22.47;33.84;93735.91;5023076;28;20025;-82
2023/05/23 10:29:17;;;;;;;11.05;2.88;;;;;;;22.49;36.23;93737.06;5023001;28;20022;-82
2023/05/23 10:31:43;;;;;;;7.13;2.67;;;;;;;22.53;37.00;93729.69;5023124;28;20074;-84
2023/05/23 10:34:40;;;;;;;9.07;2.78;;;;;;;22.57;37.04;93737.81;5023343;28;20057;-90
2023/05/23 10:37:09;;;;;;;10.95;2.42;;;;;;;22.59;35.34;93727.34;5023600;28;20053;-87
2023/05/23 10:39:40;;;;;;;12.45;3.33;;;;;;;22.61;36.42;93728.50;5005995;28;20034;-87
2023/05/23 10:42:31;;;;;;;9.50;3.28;;;;;;;22.67;37.26;93730.81;5023324;28;20036;-87
2023/05/23 10:45:17;;;;;;;8.43;3.67;;;;;;;22.71;36.51;93728.84;5022484;28;20034;-86
2023/05/23 10:47:42;;;;;;;8.40;2.63;;;;;;;22.79;37.27;93727.66;5023487;28;20033;-88
2023/05/23 10:50:13;;;;;;;6.07;2.85;;;;;;;22.89;37.17;93718.69;5006018;28;20045;-86
2023/05/23 10:52:40;;;;;;;6.95;3.20;;;;;;;23.02;36.75;93719.06;5024011;28;20025;-87
2023/05/23 10:55:14;;;;;;;7.72;2.83;;;;;;;23.10;36.82;93723.31;5024746;28;20045;-88
2023/05/23 10:57:42;;;;;;;9.70;3.20;;;;;;;23.21;36.07;93723.25;5025669;28;20197;-86
2023/05/23 11:00:17;;;;;;;12.23;2.80;;;;;;;23.26;36.40;93713.88;5026834;28;20025;-87
2023/05/23 11:02:53;;;;;;;8.00;2.65;;;;;;;23.33;35.85;93714.63;5024589;28;20033;-87
2023/05/23 11:05:20;;;;;;;5.07;2.75;;;;;;;23.37;36.59;93714.59;5025241;28;20033;-85
2023/05/23 11:08:05;;;;;;;7.07;2.80;;;;;;;23.43;36.06;93702.91;5025161;28;20034;-84
2023/05/23 11:10:30;;;;;;;10.32;2.50;;;;;;;23.46;32.80;93700.56;5029029;28;20049;-85
2023/05/23 11:13:05;;;;;;;5.68;2.90;;;;;;;23.56;34.64;93710.59;5029614;28;20197;-88
2023/05/23 11:15:41;;;;;;;8.25;2.90;;;;;;;23.70;34.50;93704.28;5032125;28;20026;-87
2023/05/23 11:18:07;;;;;;;9.63;4.30;;;;;;;23.77;33.37;93707.75;5031216;28;20017;-87
2023/05/23 11:20:36;;;;;;;9.57;2.88;;;;;;;23.94;32.14;93710.72;5030423;28;20059;-87
2023/05/23 11:23:08;;;;;;;4.18;2.40;;;;;;;23.97;30.44;93707.19;5030352;28;20025;-87
2023/05/23 11:25:44;;;;;;;11.60;2.72;;;;;;;23.70;31.10;93702.31;5029517;28;20021;-85
2023/05/23 11:28:11;;;;;;;7.82;3.38;;;;;;;23.63;31.95;93695.00;5027193;28;20358;-89